createdAt,value
2024-05-09T00:00:42.630Z,9.94
2024-05-09T00:03:11.427Z,9.89
2024-05-09T00:05:43.762Z,9.85
2024-05-09T00:08:11.844Z,9.84
2024-05-09T00:10:40.714Z,9.80
2024-05-09T00:13:09.737Z,9.74
2024-05-09T00:15:37.596Z,9.70
2024-05-09T00:18:06.474Z,9.64
2024-05-09T00:20:38.916Z,9.64
2024-05-09T00:23:13.617Z,9.64
2024-05-09T00:25:42.657Z,9.66
2024-05-09T00:28:11.842Z,9.68
2024-05-09T00:30:39.183Z,9.66
2024-05-09T00:33:08.522Z,9.65
2024-05-09T00:35:37.761Z,9.64
2024-05-09T00:38:05.457Z,9.65
2024-05-09T00:40:39.477Z,9.63
2024-05-09T00:43:14.350Z,9.64
2024-05-09T00:45:43.073Z,9.57
2024-05-09T00:48:14.205Z,9.49
2024-05-09T00:50:44.423Z,9.53
2024-05-09T00:53:12.132Z,9.46
2024-05-09T00:55:39.647Z,9.45
2024-05-09T00:58:07.895Z,9.39
2024-05-09T01:00:39.276Z,9.34
2024-05-09T01:03:17.667Z,9.22
2024-05-09T01:05:45.322Z,9.10
2024-05-09T01:08:12.862Z,9.03
2024-05-09T01:10:43.778Z,8.98
2024-05-09T01:13:12.710Z,8.99
2024-05-09T01:15:40.034Z,8.96
2024-05-09T01:18:10.394Z,8.78
2024-05-09T01:20:42.315Z,8.54
2024-05-09T01:23:14.029Z,8.45
2024-05-09T01:25:46.698Z,8.42
2024-05-09T01:28:15.142Z,8.39
2024-05-09T01:30:42.663Z,8.36
2024-05-09T01:33:11.669Z,8.32
2024-05-09T01:35:42.035Z,8.34
2024-05-09T01:38:17.067Z,8.33
2024-05-09T01:40:44.952Z,8.32
2024-05-09T01:43:12.579Z,8.32
2024-05-09T01:45:40.600Z,8.34
2024-05-09T01:48:09.103Z,8.37
2024-05-09T01:50:40.436Z,8.36
2024-05-09T01:53:10.882Z,8.34
2024-05-09T01:55:38.818Z,8.37
2024-05-09T01:58:06.346Z,8.41
2024-05-09T02:00:39.410Z,8.37
2024-05-09T02:03:14.330Z,8.41
2024-05-09T02:05:48.395Z,8.36
2024-05-09T02:08:17.863Z,8.28
2024-05-09T02:10:46.898Z,8.29
2024-05-09T02:13:14.924Z,8.22
2024-05-09T02:15:42.344Z,8.15
2024-05-09T02:18:10.399Z,8.09
2024-05-09T02:20:39.226Z,8.05
2024-05-09T02:23:07.170Z,8.03
2024-05-09T02:25:35.018Z,7.97
2024-05-09T02:28:02.470Z,7.92
2024-05-09T02:30:38.567Z,7.92
2024-05-09T02:33:13.453Z,7.89
2024-05-09T02:35:42.762Z,7.97
2024-05-09T02:38:11.078Z,8.05
2024-05-09T02:40:39.795Z,8.04
2024-05-09T02:43:09.525Z,7.97
2024-05-09T02:45:39.202Z,7.87
2024-05-09T02:48:09.749Z,7.78
2024-05-09T02:50:39.517Z,7.76
2024-05-09T02:53:08.422Z,7.73
2024-05-09T02:55:36.642Z,7.62
2024-05-09T02:58:04.095Z,7.60
2024-05-09T03:00:38.387Z,7.60
2024-05-09T03:03:10.168Z,7.50
2024-05-09T03:05:40.082Z,7.47
2024-05-09T03:08:07.838Z,7.53
2024-05-09T03:10:39.532Z,7.53
2024-05-09T03:13:12.202Z,7.52
2024-05-09T03:15:40.338Z,7.52
2024-05-09T03:18:07.864Z,7.57
2024-05-09T03:20:36.598Z,7.65
2024-05-09T03:23:06.096Z,7.72
2024-05-09T03:25:34.029Z,7.75
2024-05-09T03:28:01.667Z,7.75
2024-05-09T03:30:36.239Z,7.88
2024-05-09T03:33:13.943Z,7.95
2024-05-09T03:35:43.538Z,8.02
2024-05-09T03:38:11.045Z,8.10
2024-05-09T03:40:44.910Z,8.19
2024-05-09T03:43:13.072Z,8.24
2024-05-09T03:45:40.371Z,8.26
2024-05-09T03:48:08.487Z,8.22
2024-05-09T03:50:36.976Z,8.27
2024-05-09T03:53:05.288Z,8.28
2024-05-09T03:55:32.811Z,8.29
2024-05-09T03:58:00.246Z,8.30
2024-05-09T04:00:35.518Z,8.39
2024-05-09T04:03:08.758Z,8.49
2024-05-09T04:05:42.893Z,8.56
2024-05-09T04:08:14.468Z,8.50
2024-05-09T04:10:42.048Z,8.52
2024-05-09T04:13:10.328Z,8.59
2024-05-09T04:15:37.744Z,8.66
2024-05-09T04:18:07.982Z,8.80
2024-05-09T04:20:39.199Z,8.93
2024-05-09T04:23:13.091Z,9.06
2024-05-09T04:25:41.903Z,9.20
2024-05-09T04:28:09.254Z,9.35
2024-05-09T04:30:39.616Z,9.51
2024-05-09T04:33:11.836Z,9.62
2024-05-09T04:35:44.998Z,9.57
2024-05-09T04:38:14.442Z,9.50
2024-05-09T04:40:42.518Z,9.44
2024-05-09T04:43:18.681Z,9.38
2024-05-09T04:45:45.950Z,9.34
2024-05-09T04:48:13.484Z,9.33
2024-05-09T04:50:41.406Z,9.22
2024-05-09T04:53:11.242Z,9.23
2024-05-09T04:55:40.719Z,9.28
2024-05-09T04:58:08.942Z,9.36
2024-05-09T05:00:38.652Z,9.44
2024-05-09T05:03:10.085Z,9.52
2024-05-09T05:05:42.689Z,9.61
2024-05-09T05:08:18.420Z,9.67
2024-05-09T05:10:47.604Z,9.76
2024-05-09T05:13:17.629Z,9.88
2024-05-09T05:15:46.310Z,10.01
2024-05-09T05:18:14.876Z,10.07
2024-05-09T05:20:42.919Z,10.10
2024-05-09T05:23:15.291Z,10.19
2024-05-09T05:25:42.915Z,10.34
2024-05-09T05:28:10.379Z,10.38
2024-05-09T05:30:39.040Z,10.42
2024-05-09T05:33:07.380Z,10.43
2024-05-09T05:35:35.187Z,10.40
2024-05-09T05:38:03.523Z,10.44
2024-05-09T05:40:36.363Z,10.53
2024-05-09T05:43:09.722Z,10.59
2024-05-09T05:45:37.663Z,10.65
2024-05-09T05:48:06.266Z,10.76
2024-05-09T05:50:37.189Z,10.87
2024-05-09T05:53:09.699Z,10.99
2024-05-09T05:55:39.189Z,11.15
2024-05-09T05:58:14.443Z,11.26
2024-05-09T06:00:42.518Z,11.31
2024-05-09T06:03:12.014Z,11.37
2024-05-09T06:05:40.802Z,11.38
2024-05-09T06:08:09.247Z,11.44
2024-05-09T06:10:39.864Z,11.46
2024-05-09T06:13:10.832Z,11.49
2024-05-09T06:15:39.012Z,11.54
2024-05-09T06:18:07.834Z,11.56
2024-05-09T06:20:37.693Z,11.62
2024-05-09T06:23:06.981Z,11.71
2024-05-09T06:25:35.743Z,11.83
2024-05-09T06:28:03.369Z,11.89
2024-05-09T06:30:38.613Z,11.92
2024-05-09T06:33:10.121Z,11.96
2024-05-09T06:35:38.758Z,12.00
2024-05-09T06:38:11.016Z,12.10
2024-05-09T06:40:41.018Z,12.23
2024-05-09T06:43:18.366Z,12.27
2024-05-09T06:45:48.345Z,12.34
2024-05-09T06:48:20.442Z,12.43
2024-05-09T06:50:48.518Z,12.55
2024-05-09T06:53:17.406Z,12.67
2024-05-09T06:55:45.243Z,12.81
2024-05-09T06:58:12.677Z,12.84
2024-05-09T07:00:41.651Z,12.87
2024-05-09T07:03:11.421Z,12.99
2024-05-09T07:05:39.842Z,13.07
2024-05-09T07:08:07.347Z,13.06
2024-05-09T07:10:36.139Z,13.11
2024-05-09T07:13:14.038Z,13.25
2024-05-09T07:15:41.847Z,13.34
2024-05-09T07:18:13.849Z,13.38
2024-05-09T07:20:42.039Z,13.48
2024-05-09T07:23:10.598Z,13.55
2024-05-09T07:25:40.207Z,13.57
2024-05-09T07:28:13.288Z,13.55
2024-05-09T07:30:43.340Z,13.59
2024-05-09T07:33:17.889Z,13.69
2024-05-09T07:35:46.520Z,13.70
2024-05-09T07:38:14.724Z,13.70
2024-05-09T07:40:43.300Z,13.76
2024-05-09T07:43:13.328Z,13.79
2024-05-09T07:45:50.837Z,13.83
2024-05-09T07:52:37.789Z,13.90
2024-05-09T07:53:47.766Z,14.01
2024-05-09T07:56:21.216Z,14.04
2024-05-09T07:58:51.217Z,14.03
2024-05-09T08:01:20.181Z,14.05
2024-05-09T08:03:50.002Z,14.07
2024-05-09T08:06:17.509Z,14.15
2024-05-09T08:08:47.251Z,14.21
2024-05-09T08:11:16.928Z,14.26
2024-05-09T08:13:45.333Z,14.25
2024-05-09T08:19:43.179Z,14.39
2024-05-09T08:22:10.972Z,14.49
2024-05-09T08:24:38.768Z,14.55
2024-05-09T08:27:06.177Z,14.62
2024-05-09T08:29:36.952Z,14.66
2024-05-09T08:32:05.969Z,14.64
2024-05-09T08:34:33.433Z,14.63
2024-05-09T08:37:10.045Z,14.66
2024-05-09T08:39:42.960Z,14.77
2024-05-09T08:42:10.278Z,14.92
2024-05-09T08:44:37.910Z,15.03
2024-05-09T08:47:08.486Z,15.05
2024-05-09T08:49:37.786Z,15.05
2024-05-09T08:52:06.898Z,15.07
2024-05-09T08:54:34.246Z,15.11
2024-05-09T08:57:01.548Z,15.13
2024-05-09T08:59:35.336Z,15.15
2024-05-09T09:02:02.854Z,15.18
2024-05-09T09:04:30.596Z,15.29
2024-05-09T09:06:59.786Z,15.39
2024-05-09T09:09:27.874Z,15.46
2024-05-09T09:11:56.022Z,15.54
2024-05-09T09:14:23.788Z,15.62
2024-05-09T09:16:52.011Z,15.68
2024-05-09T09:19:19.648Z,15.74
2024-05-09T09:21:46.987Z,15.74
2024-05-09T09:24:14.417Z,15.72
2024-05-09T09:26:45.382Z,15.69
2024-05-09T09:29:12.934Z,15.65
2024-05-09T09:31:42.309Z,15.65
2024-05-09T09:34:11.250Z,15.72
2024-05-09T09:36:39.014Z,15.86
2024-05-09T09:39:06.824Z,15.91
2024-05-09T09:41:34.277Z,15.97
2024-05-09T09:44:04.113Z,16.11
2024-05-09T09:46:32.127Z,16.23
2024-05-09T09:52:22.255Z,16.24
2024-05-09T09:54:49.945Z,16.26
2024-05-09T09:57:19.301Z,16.28
2024-05-09T09:59:46.870Z,16.29
2024-05-09T10:02:14.477Z,16.34
2024-05-09T10:04:42.149Z,16.40
2024-05-09T10:07:09.854Z,16.44
2024-05-09T10:09:37.428Z,16.49
2024-05-09T10:12:11.824Z,16.52
2024-05-09T10:14:53.606Z,16.49
2024-05-09T10:17:20.919Z,16.46
2024-05-09T10:19:48.436Z,16.38
2024-05-09T10:22:26.984Z,16.36
2024-05-09T10:24:54.487Z,16.38
2024-05-09T10:27:28.832Z,16.37
2024-05-09T10:29:59.463Z,16.39
2024-05-09T10:32:27.397Z,16.41
2024-05-09T10:35:08.556Z,16.44
2024-05-09T10:37:35.912Z,16.46
2024-05-09T10:40:07.212Z,16.48
2024-05-09T10:42:39.107Z,16.51
2024-05-09T10:45:07.325Z,16.60
2024-05-09T10:47:34.771Z,16.72
2024-05-09T10:50:02.207Z,16.86
2024-05-09T10:52:29.689Z,17.01
2024-05-09T10:54:57.091Z,17.16
2024-05-09T10:57:24.773Z,17.25
2024-05-09T10:59:52.118Z,17.16
2024-05-09T11:02:19.523Z,16.99
2024-05-09T11:04:47.027Z,16.75
2024-05-09T11:07:15.778Z,16.61
2024-05-09T11:09:43.347Z,16.58
2024-05-09T11:12:10.727Z,16.71
2024-05-09T11:14:38.271Z,16.86
2024-05-09T11:17:07.062Z,17.04
2024-05-09T11:19:37.988Z,17.12
2024-05-09T11:22:06.136Z,17.15
2024-05-09T11:24:34.481Z,17.26
2024-05-09T11:27:03.500Z,17.42
2024-05-09T11:29:46.769Z,17.55
2024-05-09T11:32:16.488Z,17.51
2024-05-09T11:34:44.639Z,17.39
2024-05-09T11:37:13.701Z,17.36
2024-05-09T11:39:41.289Z,17.35
2024-05-09T11:42:08.925Z,17.38
2024-05-09T11:44:55.959Z,17.44
2024-05-09T11:47:23.409Z,17.42
2024-05-09T11:49:51.007Z,17.40
2024-05-09T11:52:18.505Z,17.40
2024-05-09T11:54:45.966Z,17.34
2024-05-09T11:57:13.388Z,17.37
2024-05-09T11:59:40.955Z,17.44
2024-05-09T12:02:08.508Z,17.50
2024-05-09T12:04:40.800Z,17.56
2024-05-09T12:10:38.844Z,17.82
2024-05-09T12:13:07.732Z,17.84
2024-05-09T12:15:38.280Z,17.96
2024-05-09T12:18:08.139Z,18.05
2024-05-09T12:20:38.810Z,18.06
2024-05-09T12:23:09.730Z,18.05
2024-05-09T12:25:38.511Z,18.03
2024-05-09T12:28:06.689Z,17.97
2024-05-09T12:30:38.370Z,17.96
2024-05-09T12:33:09.619Z,17.99
2024-05-09T12:35:37.429Z,18.01
2024-05-09T12:38:05.024Z,18.00
2024-05-09T12:40:36.791Z,17.94
2024-05-09T12:43:06.943Z,17.92
2024-05-09T12:45:34.572Z,17.97
2024-05-09T12:48:02.017Z,18.05
2024-05-09T12:50:32.831Z,17.98
2024-05-09T12:53:43.775Z,17.97
2024-05-09T12:56:11.667Z,17.96
2024-05-09T12:58:39.621Z,17.95
2024-05-09T13:01:09.626Z,17.94
2024-05-09T13:04:28.226Z,17.90
2024-05-09T13:06:55.631Z,17.87
2024-05-09T13:09:23.098Z,17.86
2024-05-09T13:11:50.588Z,17.84
2024-05-09T13:14:18.214Z,17.81
2024-05-09T13:16:45.823Z,17.80
2024-05-09T13:19:13.373Z,17.87
2024-05-09T13:21:40.747Z,17.91
2024-05-09T13:24:08.142Z,17.93
2024-05-09T13:26:35.907Z,17.95
2024-05-09T13:29:03.263Z,17.98
2024-05-09T13:31:30.662Z,18.07
2024-05-09T13:33:58.348Z,18.12
2024-05-09T13:36:25.852Z,18.12
2024-05-09T13:38:53.204Z,18.01
2024-05-09T13:41:20.475Z,17.92
2024-05-09T13:43:47.901Z,17.86
2024-05-09T13:46:15.323Z,17.85
2024-05-09T13:48:42.929Z,17.85
2024-05-09T13:51:10.493Z,17.90
2024-05-09T13:53:37.835Z,18.01
2024-05-09T13:56:05.702Z,18.07
2024-05-09T13:58:33.062Z,18.10
2024-05-09T14:01:01.834Z,18.13
2024-05-09T14:03:31.245Z,18.11
2024-05-09T14:05:59.264Z,18.09
2024-05-09T14:08:26.673Z,18.10
2024-05-09T14:10:54.121Z,18.17
2024-05-09T14:13:21.599Z,18.27
2024-05-09T14:15:49.253Z,18.34
2024-05-09T14:18:17.485Z,18.36
2024-05-09T14:20:46.634Z,18.34
2024-05-09T14:23:14.611Z,18.32
2024-05-09T14:25:43.533Z,18.35
2024-05-09T14:28:12.536Z,18.47
2024-05-09T14:30:41.137Z,18.61
2024-05-09T14:33:09.382Z,18.79
2024-05-09T14:35:37.935Z,18.84
2024-05-09T14:38:06.529Z,18.83
2024-05-09T14:43:04.133Z,18.98
2024-05-09T14:45:32.182Z,19.08
2024-05-09T14:47:59.586Z,19.20
2024-05-09T14:50:34.852Z,19.30
2024-05-09T14:53:06.931Z,19.30
2024-05-09T14:55:36.570Z,19.38
2024-05-09T14:58:11.409Z,19.44
2024-05-09T15:00:45.755Z,19.56
2024-05-09T15:03:21.009Z,19.63
2024-05-09T15:05:49.708Z,19.66
2024-05-09T15:08:18.235Z,19.63
2024-05-09T15:10:46.689Z,19.57
2024-05-09T15:13:16.489Z,19.62
2024-05-09T15:15:45.055Z,19.64
2024-05-09T15:18:13.863Z,19.61
2024-05-09T15:20:41.532Z,19.60
2024-05-09T15:23:09.093Z,19.59
2024-05-09T15:25:37.153Z,19.56
2024-05-09T15:28:07.069Z,19.51
2024-05-09T15:30:35.098Z,19.36
2024-05-09T15:33:07.515Z,19.20
2024-05-09T15:35:41.105Z,19.10
2024-05-09T15:38:08.866Z,19.05
2024-05-09T15:40:39.974Z,19.02
2024-05-09T15:43:09.577Z,18.97
2024-05-09T15:45:39.191Z,18.90
2024-05-09T15:48:08.104Z,18.88
2024-05-09T15:50:39.517Z,18.81
2024-05-09T15:53:10.122Z,18.75
2024-05-09T15:55:38.638Z,18.72
2024-05-09T15:58:07.139Z,18.69
2024-05-09T16:00:39.298Z,18.58
2024-05-09T16:03:10.798Z,18.47
2024-05-09T16:05:41.027Z,18.39
2024-05-09T16:08:08.793Z,18.32
2024-05-09T16:10:38.756Z,18.17
2024-05-09T16:13:06.722Z,18.08
2024-05-09T16:15:34.273Z,17.97
2024-05-09T16:18:01.775Z,17.89
2024-05-09T16:20:38.957Z,17.85
2024-05-09T16:23:09.318Z,17.78
2024-05-09T16:25:38.422Z,17.77
2024-05-09T16:28:09.715Z,17.76
2024-05-09T16:30:39.178Z,17.75
2024-05-09T16:33:07.131Z,17.69
2024-05-09T16:35:34.957Z,17.63
2024-05-09T16:38:02.957Z,17.61
2024-05-09T16:40:37.334Z,17.57
2024-05-09T16:43:12.143Z,17.53
2024-05-09T16:45:41.133Z,17.52
2024-05-09T16:48:08.985Z,17.51
2024-05-09T16:50:36.905Z,17.47
2024-05-09T16:53:05.852Z,17.37
2024-05-09T16:55:35.142Z,17.31
2024-05-09T16:58:03.432Z,17.20
2024-05-09T17:00:39.388Z,17.14
2024-05-09T17:03:12.348Z,17.09
2024-05-09T17:05:40.961Z,17.05
2024-05-09T17:08:08.746Z,17.03
2024-05-09T17:10:36.816Z,16.94
2024-05-09T17:13:06.615Z,16.82
2024-05-09T17:15:38.491Z,16.77
2024-05-09T17:18:06.972Z,16.70
2024-05-09T17:20:36.770Z,16.63
2024-05-09T17:23:05.966Z,16.57
2024-05-09T17:25:33.750Z,16.51
2024-05-09T17:28:07.075Z,16.45
2024-05-09T17:30:37.343Z,16.38
2024-05-09T17:33:07.376Z,16.33
2024-05-09T17:35:38.048Z,16.22
2024-05-09T17:38:05.733Z,16.16
2024-05-09T17:40:36.057Z,16.10
2024-05-09T17:43:06.264Z,16.03
2024-05-09T17:45:35.017Z,15.96
2024-05-09T17:48:02.838Z,15.88
2024-05-09T17:50:35.666Z,15.79
2024-05-09T17:53:06.351Z,15.70
2024-05-09T17:55:34.203Z,15.57
2024-05-09T17:58:01.964Z,15.49
2024-05-09T18:00:37.392Z,15.44
2024-05-09T18:03:08.229Z,15.31
2024-05-09T18:05:37.030Z,15.21
2024-05-09T18:08:08.604Z,15.17
2024-05-09T18:10:38.999Z,15.11
2024-05-09T18:13:10.371Z,15.06
2024-05-09T18:15:41.995Z,14.96
2024-05-09T18:18:10.495Z,14.88
2024-05-09T18:20:43.659Z,14.82
2024-05-09T18:23:18.777Z,14.79
2024-05-09T18:25:47.050Z,14.72
2024-05-09T18:28:15.716Z,14.67
2024-05-09T18:30:43.529Z,14.62
2024-05-09T18:33:11.696Z,14.59
2024-05-09T18:35:41.090Z,14.54
2024-05-09T18:38:08.860Z,14.48
2024-05-09T18:40:38.372Z,14.42
2024-05-09T18:43:08.562Z,14.34
2024-05-09T18:45:37.809Z,14.29
2024-05-09T18:48:09.297Z,14.19
2024-05-09T18:50:39.809Z,14.15
2024-05-09T18:53:09.657Z,14.07
2024-05-09T18:55:37.020Z,14.00
2024-05-09T18:58:05.855Z,13.93
2024-05-09T19:00:37.513Z,13.85
2024-05-09T19:03:12.913Z,13.75
2024-05-09T19:05:43.161Z,13.65
2024-05-09T19:08:11.748Z,13.55
2024-05-09T19:10:39.337Z,13.46
2024-05-09T19:13:11.076Z,13.40
2024-05-09T19:15:41.087Z,13.37
2024-05-09T19:18:09.778Z,13.34
2024-05-09T19:20:37.987Z,13.33
2024-05-09T19:23:06.198Z,13.31
2024-05-09T19:25:34.583Z,13.30
2024-05-09T19:28:03.046Z,13.26
2024-05-09T19:30:38.445Z,13.22
2024-05-09T19:33:10.168Z,13.21
2024-05-09T19:35:38.867Z,13.21
2024-05-09T19:38:06.269Z,13.18
2024-05-09T19:40:34.915Z,13.13
2024-05-09T19:43:04.068Z,13.07
2024-05-09T19:45:36.260Z,13.03
2024-05-09T19:48:05.003Z,12.96
2024-05-09T19:50:40.869Z,12.88
2024-05-09T19:53:12.090Z,12.85
2024-05-09T19:55:40.179Z,12.78
2024-05-09T19:58:08.405Z,12.71
2024-05-09T20:00:38.253Z,12.67
2024-05-09T20:03:08.013Z,12.60
2024-05-09T20:05:36.287Z,12.50
2024-05-09T20:08:04.674Z,12.45
2024-05-09T20:10:34.282Z,12.39
2024-05-09T20:13:04.270Z,12.32
2024-05-09T20:15:33.146Z,12.27
2024-05-09T20:18:00.689Z,12.25
2024-05-09T20:20:36.253Z,12.21
2024-05-09T20:23:07.339Z,12.17
2024-05-09T20:25:34.620Z,12.10
2024-05-09T20:28:01.970Z,12.07
2024-05-09T20:30:32.687Z,12.09
2024-05-09T20:33:02.112Z,12.07
2024-05-09T20:35:31.738Z,12.08
2024-05-09T20:37:59.271Z,12.09
2024-05-09T20:40:36.197Z,12.08
2024-05-09T20:43:07.077Z,12.06
2024-05-09T20:45:35.138Z,12.00
2024-05-09T20:48:02.967Z,11.91
2024-05-09T20:50:37.489Z,11.83
2024-05-09T20:53:11.967Z,11.73
2024-05-09T20:55:40.550Z,11.71
2024-05-09T20:58:08.499Z,11.69
2024-05-09T21:00:40.312Z,11.68
2024-05-09T21:03:11.642Z,11.67
2024-05-09T21:05:39.870Z,11.57
2024-05-09T21:08:07.702Z,11.47
2024-05-09T21:10:36.049Z,11.38
2024-05-09T21:13:04.315Z,11.33
2024-05-09T21:15:32.256Z,11.30
2024-05-09T21:17:59.818Z,11.33
2024-05-09T21:22:57.502Z,11.24
2024-05-09T21:25:24.700Z,11.26
2024-05-09T21:27:52.358Z,11.26
2024-05-09T21:30:31.287Z,11.19
2024-05-09T21:33:06.275Z,11.15
2024-05-09T21:35:33.957Z,11.09
2024-05-09T21:38:01.311Z,11.06
2024-05-09T21:40:34.227Z,10.98
2024-05-09T21:43:03.983Z,10.94
2024-05-09T21:45:31.536Z,10.86
2024-05-09T21:47:58.963Z,10.80
2024-05-09T21:50:36.138Z,10.80
2024-05-09T21:53:07.580Z,10.75
2024-05-09T21:55:35.056Z,10.68
2024-05-09T21:58:03.146Z,10.68
2024-05-09T22:00:36.453Z,10.66
2024-05-09T22:03:10.273Z,10.63
2024-05-09T22:05:39.050Z,10.59
2024-05-09T22:08:06.694Z,10.55
2024-05-09T22:10:36.117Z,10.54
2024-05-09T22:13:05.400Z,10.54
2024-05-09T22:15:35.750Z,10.54
2024-05-09T22:18:04.227Z,10.52
2024-05-09T22:20:37.110Z,10.46
2024-05-09T22:23:07.153Z,10.41
2024-05-09T22:25:34.807Z,10.43
2024-05-09T22:28:02.942Z,10.40
2024-05-09T22:30:36.225Z,10.39
2024-05-09T22:33:07.146Z,10.39
2024-05-09T22:35:34.846Z,10.41
2024-05-09T22:38:02.714Z,10.38
2024-05-09T22:40:38.921Z,10.35
2024-05-09T22:43:16.429Z,10.31
2024-05-09T22:45:44.003Z,10.25
2024-05-09T22:48:11.396Z,10.26
2024-05-09T22:50:38.801Z,10.25
2024-05-09T22:53:06.079Z,10.19
2024-05-09T22:55:33.334Z,10.13
2024-05-09T22:58:00.654Z,10.06
2024-05-09T23:00:31.775Z,10.00
2024-05-09T23:03:00.726Z,9.97
2024-05-09T23:05:28.547Z,9.93
2024-05-09T23:07:55.919Z,9.90
2024-05-09T23:10:31.048Z,9.89
2024-05-09T23:13:02.865Z,9.90
2024-05-09T23:15:30.358Z,9.83
2024-05-09T23:17:58.386Z,9.78
2024-05-09T23:20:35.959Z,9.73
2024-05-09T23:23:06.693Z,9.66
2024-05-09T23:25:34.670Z,9.65
2024-05-09T23:28:02.258Z,9.63
2024-05-09T23:30:37.359Z,9.63
2024-05-09T23:33:08.089Z,9.53
2024-05-09T23:35:35.721Z,9.44
2024-05-09T23:38:02.998Z,9.36
2024-05-09T23:40:38.404Z,9.26
2024-05-09T23:43:09.006Z,9.30
2024-05-09T23:45:36.929Z,9.35
2024-05-09T23:48:05.013Z,9.25
2024-05-09T23:50:36.337Z,9.24
2024-05-09T23:53:06.377Z,9.24
2024-05-09T23:55:34.960Z,9.20
2024-05-09T23:58:02.241Z,9.16
